createdAt,value
2023-02-11T00:01:44.375Z,-4.97
2023-02-11T00:05:07.334Z,-4.53
2023-02-11T00:08:29.715Z,-4.24
2023-02-11T00:11:52.109Z,-4.43
2023-02-11T00:15:18.194Z,-4.22
2023-02-11T00:18:40.681Z,-4.39
2023-02-11T00:22:03.186Z,-4.58
2023-02-11T00:25:26.114Z,-4.55
2023-02-11T00:28:48.914Z,-4.49
2023-02-11T00:32:13.384Z,-4.39
2023-02-11T00:35:37.661Z,-4.36
2023-02-11T00:39:00.359Z,-5.11
2023-02-11T00:42:23.647Z,-5.14
2023-02-11T00:45:49.513Z,-4.91
2023-02-11T00:49:13.404Z,-5.33
2023-02-11T00:52:36.633Z,-5.55
2023-02-11T00:55:58.971Z,-5.12
2023-02-11T00:59:21.362Z,-5.14
2023-02-11T01:02:44.030Z,-5.32
2023-02-11T01:06:08.914Z,-5.15
2023-02-11T01:09:33.068Z,-5.08
2023-02-11T01:12:58.761Z,-5.41
2023-02-11T01:16:21.416Z,-5.13
2023-02-11T01:19:44.403Z,-5.00
2023-02-11T01:23:08.461Z,-5.06
2023-02-11T01:26:31.837Z,-5.15
2023-02-11T01:29:54.290Z,-5.15
2023-02-11T01:33:16.747Z,-5.28
2023-02-11T01:36:39.354Z,-5.30
2023-02-11T01:40:04.298Z,-5.15
2023-02-11T01:43:27.223Z,-5.46
2023-02-11T01:46:50.266Z,-5.77
2023-02-11T01:50:13.801Z,-5.98
2023-02-11T01:54:05.424Z,-5.69
2023-02-11T01:57:31.015Z,-4.76
2023-02-11T02:00:53.961Z,-4.87
2023-02-11T02:04:18.783Z,-5.60
2023-02-11T02:07:45.927Z,-5.43
2023-02-11T02:11:08.945Z,-5.23
2023-02-11T02:14:34.122Z,-5.37
2023-02-11T02:18:05.434Z,-5.37
2023-02-11T02:21:58.501Z,-4.98
2023-02-11T02:25:29.880Z,-5.75
2023-02-11T02:29:05.372Z,-5.86
2023-02-11T02:32:34.079Z,-5.79
2023-02-11T02:36:02.721Z,-6.03
2023-02-11T02:39:27.274Z,-5.92
2023-02-11T02:42:50.028Z,-5.82
2023-02-11T02:46:14.706Z,-5.60
2023-02-11T02:49:38.618Z,-5.74
2023-02-11T02:53:09.144Z,-5.90
2023-02-11T02:56:33.469Z,-5.93
2023-02-11T03:00:09.441Z,-5.63
2023-02-11T03:03:36.742Z,-5.26
2023-02-11T03:07:04.176Z,-5.25
2023-02-11T03:10:27.983Z,-5.66
2023-02-11T03:13:50.799Z,-5.79
2023-02-11T03:17:13.431Z,-4.93
2023-02-11T03:20:37.606Z,-5.21
2023-02-11T03:24:03.280Z,-5.71
2023-02-11T03:27:30.944Z,-5.75
2023-02-11T03:30:57.266Z,-5.77
2023-02-11T03:34:22.099Z,-5.68
2023-02-11T03:37:46.654Z,-5.99
2023-02-11T03:41:10.538Z,-5.97
2023-02-11T03:44:36.044Z,-5.20
2023-02-11T03:48:01.347Z,-5.05
2023-02-11T03:51:23.760Z,-5.48
2023-02-11T03:54:46.702Z,-5.70
2023-02-11T03:58:10.473Z,-5.44
2023-02-11T04:01:33.305Z,-5.93
2023-02-11T04:04:56.509Z,-6.19
2023-02-11T04:08:18.889Z,-6.36
2023-02-11T04:11:41.953Z,-5.88
2023-02-11T04:15:06.490Z,-6.22
2023-02-11T04:18:29.165Z,-6.16
2023-02-11T04:21:51.496Z,-6.17
2023-02-11T04:25:14.624Z,-6.22
2023-02-11T04:28:36.949Z,-5.93
2023-02-11T04:32:01.361Z,-5.93
2023-02-11T04:35:23.875Z,-6.06
2023-02-11T04:38:46.887Z,-6.11
2023-02-11T04:42:12.346Z,-6.02
2023-02-11T04:45:34.855Z,-5.21
2023-02-11T04:48:59.065Z,-5.94
2023-02-11T04:52:21.399Z,-6.08
2023-02-11T04:55:44.050Z,-6.10
2023-02-11T04:59:07.022Z,-6.07
2023-02-11T05:02:29.482Z,-5.72
2023-02-11T05:05:53.664Z,-5.94
2023-02-11T05:09:16.826Z,-6.07
2023-02-11T05:12:39.542Z,-6.20
2023-02-11T05:16:02.248Z,-6.13
2023-02-11T05:19:24.866Z,-6.13
2023-02-11T05:22:48.688Z,-6.27
2023-02-11T05:26:11.212Z,-6.24
2023-02-11T05:29:33.468Z,-6.09
2023-02-11T05:32:56.650Z,-5.84
2023-02-11T05:36:19.138Z,-5.97
2023-02-11T05:39:43.156Z,-5.83
2023-02-11T05:43:05.680Z,-5.66
2023-02-11T05:46:28.238Z,-5.98
2023-02-11T05:49:50.610Z,-6.17
2023-02-11T05:53:13.182Z,-6.58
2023-02-11T05:56:37.510Z,-6.98
2023-02-11T06:00:00.161Z,-7.11
2023-02-11T06:03:23.136Z,-7.06
2023-02-11T06:06:46.211Z,-7.05
2023-02-11T06:10:09.720Z,-6.93
2023-02-11T06:13:34.201Z,-7.01
2023-02-11T06:16:56.698Z,-6.97
2023-02-11T06:20:19.374Z,-6.67
2023-02-11T06:23:41.929Z,-6.71
2023-02-11T06:27:04.952Z,-6.66
2023-02-11T06:30:28.618Z,-6.58
2023-02-11T06:33:51.989Z,-6.45
2023-02-11T06:37:14.577Z,-6.57
2023-02-11T06:40:37.228Z,-6.55
2023-02-11T06:43:59.850Z,-6.41
2023-02-11T06:47:23.903Z,-6.18
2023-02-11T06:50:46.484Z,-5.93
2023-02-11T06:54:09.074Z,-5.76
2023-02-11T06:57:31.884Z,-5.47
2023-02-11T07:00:54.721Z,-5.15
2023-02-11T07:04:19.505Z,-5.04
2023-02-11T07:07:42.592Z,-4.65
2023-02-11T07:11:10.551Z,-4.32
2023-02-11T07:14:33.005Z,-4.10
2023-02-11T07:17:55.422Z,-3.97
2023-02-11T07:21:21.470Z,-3.74
2023-02-11T07:24:44.051Z,-3.37
2023-02-11T07:28:07.117Z,-3.75
2023-02-11T07:31:30.530Z,-3.48
2023-02-11T07:34:53.183Z,-3.37
2023-02-11T07:38:17.059Z,-3.33
2023-02-11T07:41:39.887Z,-2.93
2023-02-11T07:45:02.307Z,-2.90
2023-02-11T07:48:25.516Z,-2.67
2023-02-11T07:51:49.214Z,-2.48
2023-02-11T07:55:13.202Z,-2.08
2023-02-11T07:58:35.779Z,-0.84
2023-02-11T08:01:58.697Z,-0.08
2023-02-11T08:05:21.612Z,-0.07
2023-02-11T08:08:44.171Z,-0.50
2023-02-11T08:12:08.730Z,-1.16
2023-02-11T08:15:31.318Z,-0.99
2023-02-11T08:18:54.167Z,-1.21
2023-02-11T08:22:16.660Z,-0.86
2023-02-11T08:25:39.189Z,-0.88
2023-02-11T08:29:03.701Z,-0.36
2023-02-11T08:32:26.880Z,-0.34
2023-02-11T08:35:49.032Z,-0.28
2023-02-11T08:39:20.070Z,-0.15
2023-02-11T08:42:43.077Z,-0.35
2023-02-11T08:46:07.477Z,-0.29
2023-02-11T08:49:30.686Z,0.17
2023-02-11T08:52:53.697Z,0.39
2023-02-11T08:56:16.453Z,0.43
2023-02-11T08:59:40.097Z,0.63
2023-02-11T09:03:04.000Z,0.66
2023-02-11T09:06:26.957Z,0.64
2023-02-11T09:09:49.481Z,0.83
2023-02-11T09:13:12.702Z,1.11
2023-02-11T09:16:36.106Z,1.00
2023-02-11T09:19:59.982Z,1.14
2023-02-11T09:23:22.654Z,1.52
2023-02-11T09:26:45.461Z,2.13
2023-02-11T09:30:08.876Z,2.35
2023-02-11T09:33:31.496Z,2.36
2023-02-11T09:36:55.609Z,2.01
2023-02-11T09:40:18.326Z,2.22
2023-02-11T09:43:44.206Z,2.47
2023-02-11T09:47:08.056Z,3.41
2023-02-11T09:50:32.285Z,4.79
2023-02-11T09:54:00.927Z,5.56
2023-02-11T09:57:29.020Z,5.37
2023-02-11T10:00:58.184Z,6.10
2023-02-11T10:04:26.455Z,6.86
2023-02-11T10:07:52.679Z,7.05
2023-02-11T10:11:30.989Z,6.85
2023-02-11T10:15:12.762Z,7.23
2023-02-11T10:18:41.563Z,7.64
2023-02-11T10:22:08.600Z,7.63
2023-02-11T10:25:35.940Z,7.21
2023-02-11T10:29:02.030Z,7.12
2023-02-11T10:32:36.672Z,6.32
2023-02-11T10:35:59.259Z,6.04
2023-02-11T10:39:23.229Z,6.39
2023-02-11T10:42:47.274Z,6.36
2023-02-11T10:46:16.071Z,5.54
2023-02-11T10:49:39.713Z,5.72
2023-02-11T10:53:19.861Z,6.08
2023-02-11T10:56:43.615Z,6.27
2023-02-11T11:00:17.120Z,6.37
2023-02-11T11:03:41.501Z,6.78
2023-02-11T11:07:15.629Z,6.68
2023-02-11T11:10:43.463Z,6.87
2023-02-11T11:14:06.429Z,6.67
2023-02-11T11:17:29.750Z,6.13
2023-02-11T11:20:59.608Z,6.37
2023-02-11T11:24:24.982Z,6.71
2023-02-11T11:27:50.101Z,7.81
2023-02-11T11:31:19.040Z,8.15
2023-02-11T11:34:43.085Z,7.12
2023-02-11T11:38:07.181Z,7.02
2023-02-11T11:41:30.702Z,6.67
2023-02-11T11:44:57.948Z,6.70
2023-02-11T11:48:22.374Z,7.41
2023-02-11T11:51:46.888Z,6.77
2023-02-11T11:55:15.947Z,6.42
2023-02-11T11:58:38.682Z,6.03
2023-02-11T12:02:12.249Z,5.68
2023-02-11T12:05:37.608Z,5.67
2023-02-11T12:09:07.913Z,5.81
2023-02-11T12:12:41.539Z,5.87
2023-02-11T12:16:10.359Z,6.37
2023-02-11T12:19:51.080Z,7.62
2023-02-11T12:23:23.845Z,7.04
2023-02-11T12:26:47.653Z,7.37
2023-02-11T12:30:19.336Z,7.49
2023-02-11T12:33:56.774Z,8.53
2023-02-11T12:37:26.010Z,9.15
2023-02-11T12:40:54.343Z,9.49
2023-02-11T12:44:23.136Z,9.18
2023-02-11T12:47:54.799Z,9.22
2023-02-11T12:51:24.615Z,9.82
2023-02-11T12:54:50.044Z,9.62
2023-02-11T12:58:14.773Z,9.71
2023-02-11T13:01:40.167Z,9.75
2023-02-11T13:05:07.473Z,9.61
2023-02-11T13:08:32.142Z,8.99
2023-02-11T13:11:56.100Z,8.37
2023-02-11T13:15:20.133Z,8.20
2023-02-11T13:18:54.715Z,7.90
2023-02-11T13:22:19.570Z,8.04
2023-02-11T13:25:44.840Z,8.09
2023-02-11T13:29:15.812Z,9.07
2023-02-11T13:33:18.343Z,9.66
2023-02-11T13:36:41.823Z,10.51
2023-02-11T13:40:07.418Z,10.74
2023-02-11T13:43:31.137Z,10.31
2023-02-11T13:47:02.364Z,10.54
2023-02-11T13:50:26.190Z,10.29
2023-02-11T13:53:50.597Z,9.69
2023-02-11T13:57:34.391Z,9.43
2023-02-11T14:00:58.910Z,8.61
2023-02-11T14:04:40.429Z,10.07
2023-02-11T14:08:51.669Z,9.84
2023-02-11T14:12:37.180Z,10.60
2023-02-11T14:16:08.577Z,10.75
2023-02-11T14:19:32.889Z,11.09
2023-02-11T14:22:55.222Z,9.87
2023-02-11T14:26:30.839Z,9.83
2023-02-11T14:30:10.553Z,10.41
2023-02-11T14:33:53.646Z,10.96
2023-02-11T14:37:22.270Z,10.79
2023-02-11T14:40:52.533Z,11.62
2023-02-11T14:44:17.041Z,9.90
2023-02-11T14:47:44.741Z,10.10
2023-02-11T14:51:09.639Z,9.88
2023-02-11T14:54:33.714Z,9.43
2023-02-11T14:58:14.283Z,8.95
2023-02-11T15:01:42.466Z,8.41
2023-02-11T15:05:26.297Z,7.94
2023-02-11T15:08:50.764Z,7.85
2023-02-11T15:12:18.357Z,7.61
2023-02-11T15:15:43.402Z,7.02
2023-02-11T15:19:07.285Z,6.85
2023-02-11T15:22:34.455Z,6.93
2023-02-11T15:25:58.194Z,6.95
2023-02-11T15:29:22.117Z,7.08
2023-02-11T15:32:46.528Z,7.08
2023-02-11T15:36:12.053Z,6.75
2023-02-11T15:39:40.481Z,6.75
2023-02-11T15:43:06.490Z,6.63
2023-02-11T15:46:38.359Z,6.53
2023-02-11T15:50:03.823Z,6.20
2023-02-11T15:53:29.275Z,6.20
2023-02-11T15:56:57.609Z,6.02
2023-02-11T16:00:24.898Z,5.95
2023-02-11T16:03:52.118Z,5.84
2023-02-11T16:07:42.372Z,5.86
2023-02-11T16:11:09.547Z,5.60
2023-02-11T16:14:37.631Z,5.79
2023-02-11T16:18:02.154Z,5.79
2023-02-11T16:21:30.274Z,5.74
2023-02-11T16:24:57.908Z,5.84
2023-02-11T16:28:23.475Z,5.72
2023-02-11T16:31:50.760Z,5.65
2023-02-11T16:35:14.708Z,5.68
2023-02-11T16:38:38.874Z,5.57
2023-02-11T16:42:05.234Z,5.60
2023-02-11T16:45:32.248Z,5.63
2023-02-11T16:48:58.142Z,5.33
2023-02-11T16:52:26.115Z,5.30
2023-02-11T16:55:50.838Z,5.11
2023-02-11T16:59:16.568Z,5.12
2023-02-11T17:02:41.130Z,5.14
2023-02-11T17:06:08.469Z,4.73
2023-02-11T17:09:32.624Z,4.62
2023-02-11T17:12:56.366Z,4.56
2023-02-11T17:16:23.069Z,4.51
2023-02-11T17:19:48.881Z,4.27
2023-02-11T17:23:14.994Z,4.14
2023-02-11T17:26:39.304Z,4.08
2023-02-11T17:30:03.986Z,4.10
2023-02-11T17:33:29.791Z,4.09
2023-02-11T17:36:56.047Z,4.24
2023-02-11T17:40:25.493Z,4.25
2023-02-11T17:43:49.936Z,4.34
2023-02-11T17:47:14.620Z,4.16
2023-02-11T17:50:40.450Z,4.13
2023-02-11T17:54:07.588Z,4.41
2023-02-11T17:57:33.376Z,4.40
2023-02-11T18:01:01.010Z,4.12
2023-02-11T18:04:27.942Z,4.31
2023-02-11T18:07:51.971Z,4.19
2023-02-11T18:11:18.071Z,3.93
2023-02-11T18:14:44.118Z,4.13
2023-02-11T18:18:22.144Z,4.29
2023-02-11T18:21:45.465Z,4.24
2023-02-11T18:25:10.632Z,4.27
2023-02-11T18:28:34.904Z,4.24
2023-02-11T18:32:01.199Z,4.09
2023-02-11T18:35:25.222Z,4.14
2023-02-11T18:38:50.200Z,4.16
2023-02-11T18:42:14.629Z,4.20
2023-02-11T18:45:39.549Z,4.18
2023-02-11T18:49:05.547Z,4.31
2023-02-11T18:52:29.416Z,4.35
2023-02-11T18:55:55.176Z,4.25
2023-02-11T18:59:20.649Z,4.15
2023-02-11T19:02:45.103Z,4.14
2023-02-11T19:06:16.240Z,4.18
2023-02-11T19:09:43.760Z,4.31
2023-02-11T19:13:08.660Z,4.25
2023-02-11T19:16:33.509Z,4.34
2023-02-11T19:19:58.110Z,4.27
2023-02-11T19:23:24.872Z,4.28
2023-02-11T19:26:49.629Z,4.40
2023-02-11T19:30:14.692Z,4.36
2023-02-11T19:33:43.929Z,4.53
2023-02-11T19:37:08.011Z,4.52
2023-02-11T19:40:36.965Z,4.56
2023-02-11T19:44:01.744Z,4.44
2023-02-11T19:47:29.688Z,4.39
2023-02-11T19:50:56.942Z,4.46
2023-02-11T19:54:22.142Z,4.45
2023-02-11T19:57:48.238Z,4.37
2023-02-11T20:01:13.390Z,4.43
2023-02-11T20:04:39.372Z,4.42
2023-02-11T20:08:04.386Z,4.36
2023-02-11T20:11:32.815Z,4.30
2023-02-11T20:14:59.407Z,4.18
2023-02-11T20:18:24.306Z,4.24
2023-02-11T20:21:48.339Z,4.20
2023-02-11T20:25:13.475Z,3.96
2023-02-11T20:28:37.971Z,4.04
2023-02-11T20:32:04.058Z,4.09
2023-02-11T20:35:28.615Z,4.01
2023-02-11T20:38:53.411Z,4.07
2023-02-11T20:42:17.628Z,4.04
2023-02-11T20:45:42.906Z,3.93
2023-02-11T20:49:09.359Z,4.14
2023-02-11T20:52:36.814Z,4.17
2023-02-11T20:56:04.190Z,4.19
2023-02-11T20:59:28.204Z,4.22
2023-02-11T21:02:58.782Z,4.32
2023-02-11T21:06:25.623Z,4.20
2023-02-11T21:09:49.882Z,4.49
2023-02-11T21:13:15.149Z,4.51
2023-02-11T21:16:39.316Z,4.58
2023-02-11T21:20:03.205Z,4.45
2023-02-11T21:23:29.669Z,4.67
2023-02-11T21:26:55.425Z,4.57
2023-02-11T21:30:19.409Z,4.43
2023-02-11T21:33:48.465Z,4.48
2023-02-11T21:37:12.008Z,4.66
2023-02-11T21:40:38.766Z,4.65
2023-02-11T21:44:02.113Z,4.68
2023-02-11T21:47:26.266Z,4.71
2023-02-11T21:50:50.075Z,4.66
2023-02-11T21:54:16.243Z,4.77
2023-02-11T21:57:44.130Z,4.86
2023-02-11T22:01:14.644Z,4.91
2023-02-11T22:04:41.984Z,4.97
2023-02-11T22:08:05.288Z,4.94
2023-02-11T22:11:27.973Z,4.89
2023-02-11T22:14:53.338Z,4.89
2023-02-11T22:18:16.870Z,4.78
2023-02-11T22:21:39.713Z,4.67
2023-02-11T22:25:03.311Z,4.70
2023-02-11T22:28:30.127Z,4.56
2023-02-11T22:31:54.471Z,4.47
2023-02-11T22:35:17.186Z,4.30
2023-02-11T22:38:40.090Z,4.04
2023-02-11T22:42:02.564Z,3.95
2023-02-11T22:45:25.863Z,3.91
2023-02-11T22:48:49.848Z,4.04
2023-02-11T22:52:12.997Z,3.94
2023-02-11T22:55:37.813Z,3.96
2023-02-11T22:59:01.249Z,3.94
2023-02-11T23:02:23.674Z,3.90
2023-02-11T23:05:47.979Z,3.97
2023-02-11T23:09:12.383Z,3.94
2023-02-11T23:12:35.249Z,3.97
2023-02-11T23:15:57.895Z,4.01
2023-02-11T23:19:20.640Z,4.11
2023-02-11T23:22:44.190Z,4.10
2023-02-11T23:26:06.894Z,4.10
2023-02-11T23:29:29.430Z,4.08
2023-02-11T23:32:52.232Z,4.05
2023-02-11T23:36:14.518Z,4.04
2023-02-11T23:39:38.808Z,4.24
2023-02-11T23:43:00.934Z,3.99
2023-02-11T23:46:23.666Z,4.14
2023-02-11T23:49:46.465Z,4.15
2023-02-11T23:53:08.826Z,4.02
2023-02-11T23:56:32.638Z,4.06
2023-02-11T23:59:55.880Z,3.87
